Time;durP1;ratioP1;P1;durP2;ratioP2;P2;SDS_P1;SDS_P2;PMS_P1;PMS_P2;Temp;Humidity;BMP_temperature;BMP_pressure;BME280_temperature;BME280_humidity;BME280_pressure;Samples;Min_cycle;Max_cycle;Signal;HPM_P1;HPM_P2
2022/07/03 00:00:21;;;;;;;5.57;3.47;;;18.80;99.90;;;;;;4906096;29;20133;-71
2022/07/03 00:02:47;;;;;;;2.72;2.50;;;18.70;99.90;;;;;;4902901;29;20055;-73
2022/07/03 00:05:13;;;;;;;3.88;2.85;;;18.60;99.90;;;;;;4907982;29;21544;-75
2022/07/03 00:07:39;;;;;;;3.65;2.63;;;18.60;99.90;;;;;;4909663;29;20055;-72
2022/07/03 00:10:05;;;;;;;2.63;2.40;;;18.60;99.90;;;;;;4926962;29;20067;-75
2022/07/03 00:12:31;;;;;;;3.92;2.55;;;18.50;99.90;;;;;;4917806;29;20051;-72
2022/07/03 00:14:56;;;;;;;3.30;2.38;;;18.50;99.90;;;;;;4914640;29;20055;-75
2022/07/03 00:17:22;;;;;;;3.08;2.70;;;18.60;99.90;;;;;;4921627;29;20051;-73
2022/07/03 00:19:48;;;;;;;3.05;2.70;;;18.60;99.90;;;;;;4920798;28;20039;-72
2022/07/03 00:22:14;;;;;;;5.35;2.80;;;18.60;99.90;;;;;;4918304;29;20052;-75
2022/07/03 00:24:43;;;;;;;3.22;2.38;;;18.50;99.90;;;;;;4925650;29;20070;-72
2022/07/03 00:27:10;;;;;;;2.90;2.42;;;18.50;99.90;;;;;;4925007;29;20047;-72
2022/07/03 00:29:42;;;;;;;3.38;2.53;;;18.50;99.90;;;;;;4916746;28;20055;-75
2022/07/03 00:32:10;;;;;;;3.25;2.95;;;18.40;99.90;;;;;;4922186;29;20106;-71
2022/07/03 00:34:37;;;;;;;5.25;3.00;;;18.40;99.90;;;;;;4922781;29;20059;-72
2022/07/03 00:37:04;;;;;;;3.80;3.42;;;18.40;99.90;;;;;;4917431;29;20044;-71
2022/07/03 00:39:30;;;;;;;4.57;3.88;;;18.30;99.90;;;;;;4918906;29;20078;-71
2022/07/03 00:42:04;;;;;;;5.75;3.65;;;18.30;99.90;;;;;;4908752;29;20780;-76
2022/07/03 00:44:32;;;;;;;3.55;3.20;;;18.20;99.90;;;;;;4913036;29;20131;-72
2022/07/03 00:46:59;;;;;;;4.65;3.65;;;18.20;99.90;;;;;;4907276;29;20055;-73
2022/07/03 00:49:25;;;;;;;6.10;3.80;;;18.00;99.90;;;;;;4915956;29;20047;-73
2022/07/03 00:51:52;;;;;;;4.05;3.67;;;18.00;99.90;;;;;;4918738;29;20145;-72
2022/07/03 00:54:20;;;;;;;5.00;3.13;;;18.00;99.90;;;;;;4905136;29;20119;-73
2022/07/03 00:56:50;;;;;;;3.97;3.58;;;17.90;99.90;;;;;;4908195;29;20126;-71
2022/07/03 00:59:16;;;;;;;4.47;4.07;;;17.90;99.90;;;;;;4918680;29;20050;-72
2022/07/03 01:01:44;;;;;;;3.88;3.50;;;17.90;99.90;;;;;;4919219;29;20052;-74
2022/07/03 01:04:36;;;;;;;4.13;3.72;;;17.80;99.90;;;;;;4915394;29;20067;-73
2022/07/03 01:07:15;;;;;;;3.50;3.20;;;17.70;99.90;;;;;;4915346;29;20051;-73
2022/07/03 01:09:58;;;;;;;3.22;2.92;;;17.60;99.90;;;;;;4914507;29;20075;-72
2022/07/03 01:12:38;;;;;;;6.03;3.00;;;17.60;99.90;;;;;;4919879;29;20091;-72
2022/07/03 01:15:11;;;;;;;5.10;3.10;;;17.50;99.90;;;;;;4918533;29;20756;-71
2022/07/03 01:17:39;;;;;;;4.47;3.53;;;17.40;99.90;;;;;;4920320;29;20143;-72
2022/07/03 01:20:07;;;;;;;3.83;3.10;;;17.30;99.90;;;;;;4916805;29;20054;-75
2022/07/03 01:22:43;;;;;;;3.40;3.10;;;17.30;99.90;;;;;;4918762;28;20052;-73
2022/07/03 01:25:35;;;;;;;4.47;3.70;;;17.30;99.90;;;;;;4906003;29;20444;-71
2022/07/03 01:28:00;;;;;;;4.18;3.75;;;17.30;99.90;;;;;;4928557;29;20746;-72
2022/07/03 01:30:32;;;;;;;4.93;3.28;;;17.20;99.90;;;;;;4919097;29;20055;-72
2022/07/03 01:33:21;;;;;;;3.88;3.47;;;17.10;99.90;;;;;;4915675;29;20855;-73
2022/07/03 01:36:01;;;;;;;6.22;3.50;;;17.00;99.90;;;;;;4919098;29;20055;-76
2022/07/03 01:38:29;;;;;;;5.25;2.92;;;16.90;99.90;;;;;;4922401;29;20575;-72
2022/07/03 01:40:55;;;;;;;3.55;2.80;;;16.90;99.90;;;;;;4921057;29;20059;-73
2022/07/03 01:43:28;;;;;;;3.97;3.15;;;16.90;99.90;;;;;;4920799;29;20086;-71
2022/07/03 01:45:58;;;;;;;3.90;3.50;;;16.90;99.90;;;;;;4913389;29;20118;-72
2022/07/03 01:48:25;;;;;;;4.90;3.22;;;16.90;99.90;;;;;;4916451;29;20052;-73
2022/07/03 01:50:52;;;;;;;3.65;3.15;;;16.90;99.90;;;;;;4915093;29;20241;-72
2022/07/03 01:53:18;;;;;;;4.88;3.28;;;16.80;99.90;;;;;;4916086;29;20416;-73
2022/07/03 01:55:44;;;;;;;3.85;3.50;;;16.80;99.90;;;;;;4922437;29;20043;-74
2022/07/03 01:58:11;;;;;;;3.95;3.33;;;16.80;99.90;;;;;;4927594;29;20249;-71
2022/07/03 02:01:12;;;;;;;5.63;3.60;;;16.70;99.90;;;;;;4920836;29;20052;-71
2022/07/03 02:03:42;;;;;;;3.45;3.15;;;16.70;99.90;;;;;;4918263;29;20055;-74
2022/07/03 02:06:42;;;;;;;5.55;3.85;;;16.60;99.90;;;;;;4926345;29;20047;-72
2022/07/03 02:09:10;;;;;;;3.50;3.22;;;16.60;99.90;;;;;;4915921;29;20132;-71
2022/07/03 02:11:43;;;;;;;3.95;3.45;;;16.50;99.90;;;;;;4921964;29;20062;-72
2022/07/03 02:14:12;;;;;;;4.28;3.88;;;16.50;99.90;;;;;;4921130;28;20051;-74
2022/07/03 02:17:24;;;;;;;4.72;3.72;;;16.40;99.90;;;;;;4918275;29;20091;-71
2022/07/03 02:20:01;;;;;;;5.22;4.25;;;16.10;99.90;;;;;;4919952;29;20716;-72
2022/07/03 02:22:44;;;;;;;3.70;3.40;;;16.30;99.90;;;;;;4926925;29;20372;-72
2022/07/03 02:25:16;;;;;;;;;;;16.20;99.90;;;;;;4920727;29;20142;-72
2022/07/03 02:28:02;;;;;;;5.20;3.90;;;16.20;99.90;;;;;;4931303;28;19927;-71
2022/07/03 02:30:29;;;;;;;6.25;3.78;;;16.20;99.90;;;;;;4923309;29;20059;-71
2022/07/03 02:32:57;;;;;;;4.00;3.35;;;16.10;99.90;;;;;;4922393;29;20075;-72
2022/07/03 02:35:26;;;;;;;6.70;3.85;;;16.10;99.90;;;;;;4921777;29;20059;-72
2022/07/03 02:38:01;;;;;;;3.75;3.40;;;16.10;99.90;;;;;;4914039;29;20056;-71
2022/07/03 02:40:32;;;;;;;4.47;4.07;;;16.00;99.90;;;;;;4910334;29;20047;-71
2022/07/03 02:43:33;;;;;;;3.92;3.63;;;16.00;99.90;;;;;;4919860;29;20496;-74
2022/07/03 02:46:50;;;;;;;4.97;4.57;;;15.90;99.90;;;;;;4914069;29;20044;-71
2022/07/03 02:49:38;;;;;;;6.03;4.28;;;15.90;99.90;;;;;;4921641;29;20090;-73
2022/07/03 02:52:32;;;;;;;4.45;3.60;;;15.80;99.90;;;;;;4913656;29;20094;-71
2022/07/03 02:55:23;;;;;;;4.15;3.78;;;15.80;99.90;;;;;;4916745;29;20056;-74
2022/07/03 02:58:03;;;;;;;4.65;3.97;;;15.70;99.90;;;;;;4918673;29;20056;-73
2022/07/03 03:00:35;;;;;;;6.40;3.40;;;15.80;99.90;;;;;;4919968;29;20056;-72
2022/07/03 03:03:01;;;;;;;4.43;3.90;;;15.70;99.90;;;;;;4919986;29;20874;-72
2022/07/03 03:05:34;;;;;;;4.13;3.80;;;15.70;99.90;;;;;;4915113;29;20089;-77
2022/07/03 03:08:15;;;;;;;9.48;4.38;;;15.70;99.90;;;;;;4915955;29;20052;-73
2022/07/03 03:10:43;;;;;;;15.05;4.05;;;15.60;99.90;;;;;;4915096;29;20058;-73
2022/07/03 03:13:16;;;;;;;6.55;4.05;;;15.50;99.90;;;;;;4921272;29;20059;-74
2022/07/03 03:16:06;;;;;;;3.83;3.10;;;15.50;99.90;;;;;;4917474;29;20059;-72
2022/07/03 03:18:38;;;;;;;4.30;4.00;;;15.50;99.90;;;;;;4920340;29;20909;-71
2022/07/03 03:21:08;;;;;;;3.40;3.10;;;15.50;99.90;;;;;;4909224;29;20123;-72
2022/07/03 03:23:53;;;;;;;4.15;3.85;;;15.50;99.90;;;;;;4911399;29;20066;-73
2022/07/03 03:26:28;;;;;;;3.58;3.35;;;15.60;99.90;;;;;;4909509;29;20047;-73
2022/07/03 03:28:54;;;;;;;3.75;3.40;;;15.60;99.90;;;;;;4914599;29;20048;-74
2022/07/03 03:31:21;;;;;;;4.10;3.70;;;15.60;99.90;;;;;;4912430;29;20063;-72
2022/07/03 03:33:50;;;;;;;4.35;3.95;;;15.60;99.90;;;;;;4913147;29;20098;-71
2022/07/03 03:36:18;;;;;;;4.65;4.20;;;15.70;99.90;;;;;;4912917;29;20051;-73
2022/07/03 03:38:45;;;;;;;3.47;3.17;;;15.70;99.90;;;;;;4921019;29;20062;-73
2022/07/03 03:41:10;;;;;;;5.57;3.95;;;15.70;99.90;;;;;;4910293;29;20048;-72
2022/07/03 03:43:37;;;;;;;5.53;4.13;;;15.80;99.90;;;;;;4914935;29;20047;-72
2022/07/03 03:46:04;;;;;;;4.35;3.60;;;15.80;99.90;;;;;;4911179;29;20106;-72
2022/07/03 03:48:34;;;;;;;3.95;3.40;;;15.80;99.90;;;;;;4921778;29;20054;-73
2022/07/03 03:51:01;;;;;;;5.20;3.85;;;15.90;99.90;;;;;;4917120;29;20062;-71
2022/07/03 03:53:29;;;;;;;5.47;3.92;;;15.90;99.90;;;;;;4905019;29;20083;-73
2022/07/03 03:56:00;;;;;;;4.20;3.90;;;15.90;99.90;;;;;;4916189;29;20059;-73
2022/07/03 03:58:27;;;;;;;4.55;4.00;;;15.90;99.90;;;;;;4914326;29;20531;-72
2022/07/03 04:00:55;;;;;;;10.00;4.45;;;16.00;99.90;;;;;;4909007;29;20416;-72
2022/07/03 04:03:21;;;;;;;4.25;3.88;;;15.90;99.90;;;;;;4915116;29;20048;-72
2022/07/03 04:05:46;;;;;;;4.13;3.22;;;16.00;99.90;;;;;;4918339;29;20060;-72
2022/07/03 04:08:13;;;;;;;3.88;3.53;;;15.90;99.90;;;;;;4912162;29;20143;-73
2022/07/03 04:10:38;;;;;;;3.88;3.35;;;15.90;99.90;;;;;;4916183;29;20583;-72
2022/07/03 04:13:04;;;;;;;3.97;3.65;;;15.90;99.90;;;;;;4919834;29;20083;-73
2022/07/03 04:15:30;;;;;;;3.83;3.38;;;16.00;99.90;;;;;;4918555;29;20451;-71
2022/07/03 04:17:56;;;;;;;3.53;3.25;;;16.00;99.90;;;;;;4921152;29;20062;-72
2022/07/03 04:20:21;;;;;;;4.70;3.28;;;16.00;99.90;;;;;;4909492;29;21005;-76
2022/07/03 04:22:50;;;;;;;3.85;3.55;;;15.90;99.90;;;;;;4913448;29;20249;-71
2022/07/03 04:25:16;;;;;;;3.10;2.90;;;15.90;99.90;;;;;;4911778;29;20151;-73
2022/07/03 04:27:42;;;;;;;5.28;4.40;;;15.90;99.90;;;;;;4921020;29;20562;-71
2022/07/03 04:30:10;;;;;;;4.35;3.83;;;15.90;99.90;;;;;;4906720;29;20067;-72
2022/07/03 04:32:38;;;;;;;4.30;3.83;;;15.90;99.90;;;;;;4919938;29;20591;-75
2022/07/03 04:35:05;;;;;;;4.68;4.18;;;16.00;99.90;;;;;;4920089;29;20492;-72
2022/07/03 04:37:31;;;;;;;4.30;3.90;;;16.00;99.90;;;;;;4912170;29;20818;-72
2022/07/03 04:39:57;;;;;;;4.68;3.70;;;16.00;99.90;;;;;;4921572;29;20051;-71
2022/07/03 04:42:23;;;;;;;4.40;4.10;;;16.10;99.90;;;;;;4915212;29;20051;-72
2022/07/03 04:44:48;;;;;;;3.30;3.08;;;16.10;99.90;;;;;;4926424;29;20825;-73
2022/07/03 04:47:14;;;;;;;5.00;4.60;;;16.10;99.90;;;;;;4915576;29;20190;-71
2022/07/03 04:49:43;;;;;;;3.92;3.60;;;16.10;99.90;;;;;;4921132;29;20102;-72
2022/07/03 04:52:09;;;;;;;4.85;4.20;;;16.10;99.90;;;;;;4914420;29;20134;-72
2022/07/03 04:54:36;;;;;;;4.00;3.70;;;16.10;99.90;;;;;;4911538;29;20626;-74
2022/07/03 04:57:01;;;;;;;3.88;3.58;;;16.10;99.90;;;;;;4920473;29;20073;-72
2022/07/03 04:59:27;;;;;;;4.25;3.67;;;16.20;99.90;;;;;;4917776;28;20044;-73
2022/07/03 05:01:53;;;;;;;5.85;3.72;;;16.20;99.90;;;;;;4924875;29;20059;-74
2022/07/03 05:04:19;;;;;;;9.13;4.28;;;16.20;99.90;;;;;;4926722;28;20083;-75
2022/07/03 05:06:45;;;;;;;4.28;3.97;;;16.30;99.90;;;;;;4918563;29;20094;-72
2022/07/03 05:09:10;;;;;;;4.25;3.85;;;16.40;99.90;;;;;;4919601;29;20055;-75
2022/07/03 05:11:36;;;;;;;4.25;3.78;;;16.40;99.90;;;;;;4924415;28;20047;-72
2022/07/03 05:14:03;;;;;;;5.97;3.72;;;16.40;99.90;;;;;;4923451;29;20048;-73
2022/07/03 05:16:29;;;;;;;4.07;3.70;;;16.50;99.90;;;;;;4922685;29;20048;-72
2022/07/03 05:18:54;;;;;;;5.30;3.90;;;16.60;99.90;;;;;;4923921;29;20059;-72
2022/07/03 05:21:20;;;;;;;3.92;3.50;;;16.60;99.90;;;;;;4921926;29;20055;-75
2022/07/03 05:23:46;;;;;;;5.95;4.03;;;16.70;99.90;;;;;;4916490;29;20052;-71
2022/07/03 05:26:12;;;;;;;4.50;3.88;;;16.80;99.90;;;;;;4905494;29;20111;-75
2022/07/03 05:28:37;;;;;;;4.32;3.92;;;16.90;99.90;;;;;;4922384;29;20047;-72
2022/07/03 05:31:03;;;;;;;3.70;3.40;;;17.00;99.90;;;;;;4933566;29;20484;-71
2022/07/03 05:33:29;;;;;;;3.63;3.33;;;17.10;99.90;;;;;;4922743;28;20074;-73
2022/07/03 05:35:55;;;;;;;4.05;2.78;;;17.20;99.90;;;;;;4921380;29;20306;-76
2022/07/03 05:41:05;;;;;;;4.95;3.75;;;17.40;99.90;;;;;;4933464;28;20064;-74
2022/07/03 05:43:31;;;;;;;4.05;3.63;;;17.60;99.90;;;;;;4922193;29;20055;-72
2022/07/03 05:45:57;;;;;;;3.65;3.35;;;17.70;99.90;;;;;;4916795;29;20824;-72
2022/07/03 05:48:23;;;;;;;3.60;3.30;;;17.90;99.90;;;;;;4928848;29;20055;-71
2022/07/03 05:50:48;;;;;;;3.33;3.03;;;18.10;99.90;;;;;;4925459;28;20090;-73
2022/07/03 05:53:14;;;;;;;3.50;3.20;;;18.10;99.90;;;;;;4922957;29;20044;-73
2022/07/03 05:55:40;;;;;;;5.35;3.00;;;18.50;99.90;;;;;;4921525;29;20087;-72
2022/07/03 05:58:06;;;;;;;2.90;2.28;;;18.40;99.90;;;;;;4922665;29;20155;-73
2022/07/03 06:00:32;;;;;;;2.63;2.28;;;18.60;99.90;;;;;;4923661;29;20491;-72
2022/07/03 06:02:58;;;;;;;2.30;2.10;;;19.00;99.90;;;;;;4919691;29;20062;-73
2022/07/03 06:05:23;;;;;;;2.88;2.08;;;19.30;99.90;;;;;;4937657;28;20044;-73
2022/07/03 06:07:49;;;;;;;3.83;2.17;;;19.40;99.90;;;;;;4921567;29;20650;-73
2022/07/03 06:10:15;;;;;;;3.10;2.03;;;19.60;99.90;;;;;;4922432;29;20055;-75
2022/07/03 06:12:41;;;;;;;3.88;1.90;;;19.60;99.90;;;;;;4922611;29;20067;-74
2022/07/03 06:15:07;;;;;;;2.13;1.85;;;19.70;99.90;;;;;;4920888;29;20047;-73
2022/07/03 06:17:36;;;;;;;3.60;2.30;;;19.70;99.90;;;;;;4932093;28;20415;-73
2022/07/03 06:20:04;;;;;;;3.67;2.28;;;19.80;99.90;;;;;;4920790;29;20833;-74
2022/07/03 06:22:30;;;;;;;3.42;3.08;;;19.90;99.90;;;;;;4911731;29;20056;-72
2022/07/03 06:24:56;;;;;;;2.92;1.98;;;20.10;99.90;;;;;;4918910;29;20509;-74
2022/07/03 06:27:22;;;;;;;2.22;2.13;;;20.80;99.90;;;;;;4916098;29;20919;-72
2022/07/03 06:29:49;;;;;;;3.03;2.10;;;21.50;99.90;;;;;;4916655;29;20859;-74
2022/07/03 06:32:15;;;;;;;2.03;1.85;;;21.70;99.90;;;;;;4913597;29;20059;-73
2022/07/03 06:34:42;;;;;;;3.08;1.88;;;21.80;99.90;;;;;;4931165;29;20051;-75
2022/07/03 06:37:12;;;;;;;2.33;2.13;;;21.60;99.90;;;;;;4922140;29;20052;-72
2022/07/03 06:39:38;;;;;;;5.57;1.83;;;21.80;99.90;;;;;;4906807;29;20051;-73
2022/07/03 06:42:04;;;;;;;2.33;2.13;;;22.60;99.90;;;;;;4913861;29;20481;-72
2022/07/03 06:44:30;;;;;;;2.40;2.03;;;23.10;99.90;;;;;;4922032;29;20052;-72
2022/07/03 06:46:56;;;;;;;4.38;1.63;;;23.30;99.90;;;;;;4923128;29;20051;-75
2022/07/03 06:49:22;;;;;;;1.75;1.58;;;23.20;99.90;;;;;;4920447;29;20690;-72
2022/07/03 06:51:47;;;;;;;3.95;1.67;;;23.10;99.90;;;;;;4922781;29;20759;-74
2022/07/03 06:54:13;;;;;;;2.58;1.88;;;22.90;99.90;;;;;;4917857;29;20105;-72
2022/07/03 06:56:39;;;;;;;1.40;1.30;;;22.70;99.90;;;;;;4913993;29;20052;-76
2022/07/03 06:59:05;;;;;;;2.72;1.20;;;22.50;99.90;;;;;;4921118;29;20572;-73
2022/07/03 07:01:30;;;;;;;3.30;1.70;;;22.30;99.90;;;;;;4917302;29;21005;-72
2022/07/03 07:03:56;;;;;;;2.25;1.20;;;22.10;99.90;;;;;;4921835;29;20668;-75
2022/07/03 07:06:22;;;;;;;1.42;1.10;;;22.00;99.60;;;;;;4918670;29;20047;-74
2022/07/03 07:08:48;;;;;;;2.83;1.30;;;21.70;99.40;;;;;;4912814;29;20953;-73
2022/07/03 07:11:14;;;;;;;2.08;1.35;;;21.70;99.40;;;;;;4920080;29;20058;-72
2022/07/03 07:13:41;;;;;;;2.42;1.30;;;21.60;99.70;;;;;;4921316;29;20055;-73
2022/07/03 07:16:07;;;;;;;1.90;1.67;;;21.50;99.80;;;;;;4920043;29;20047;-74
2022/07/03 07:18:34;;;;;;;3.05;1.20;;;21.40;99.90;;;;;;4922916;29;20056;-72
2022/07/03 07:21:00;;;;;;;3.05;1.27;;;21.60;99.90;;;;;;4917215;28;20056;-73
2022/07/03 07:23:26;;;;;;;1.30;1.20;;;21.70;99.90;;;;;;4920725;28;20056;-73
2022/07/03 07:25:52;;;;;;;2.67;1.80;;;21.80;99.90;;;;;;4917331;29;20047;-73
2022/07/03 07:28:18;;;;;;;2.22;1.63;;;21.80;99.60;;;;;;4931100;28;20066;-74
2022/07/03 07:30:44;;;;;;;2.08;1.50;;;21.60;99.60;;;;;;4920351;29;20159;-72
2022/07/03 07:33:09;;;;;;;1.73;1.13;;;21.80;99.20;;;;;;4922669;28;20537;-72
2022/07/03 07:35:35;;;;;;;1.73;1.20;;;21.80;99.70;;;;;;4921282;28;20059;-76
2022/07/03 07:38:01;;;;;;;3.17;1.30;;;21.80;99.90;;;;;;4920963;29;20143;-74
2022/07/03 07:40:27;;;;;;;1.73;1.45;;;22.20;99.90;;;;;;4920409;29;20043;-73
2022/07/03 07:42:52;;;;;;;3.95;1.95;;;22.60;99.90;;;;;;4934167;29;20046;-73
2022/07/03 07:45:18;;;;;;;2.95;1.50;;;23.10;99.50;;;;;;4908501;29;20066;-73
2022/07/03 07:47:44;;;;;;;2.50;1.40;;;24.20;98.60;;;;;;4928571;29;20051;-74
2022/07/03 07:50:10;;;;;;;15.07;2.10;;;25.10;97.40;;;;;;4910683;29;20052;-73
2022/07/03 07:52:36;;;;;;;1.48;1.38;;;25.40;96.70;;;;;;4902792;29;20539;-75
2022/07/03 07:55:06;;;;;;;1.67;1.55;;;25.30;96.20;;;;;;4913134;29;20043;-74
2022/07/03 07:57:38;;;;;;;1.65;1.50;;;25.70;95.70;;;;;;4929273;29;20048;-75
2022/07/03 08:00:06;;;;;;;1.55;1.42;;;26.10;93.90;;;;;;4916138;29;20050;-75
2022/07/03 08:05:35;;;;;;;2.08;1.58;;;27.30;94.40;;;;;;4919737;29;20106;-74
2022/07/03 08:08:08;;;;;;;2.75;1.58;;;28.10;93.70;;;;;;4920835;29;20048;-73
2022/07/03 08:10:45;;;;;;;1.60;1.15;;;28.20;92.70;;;;;;4918784;28;20196;-73
2022/07/03 08:13:11;;;;;;;2.00;1.73;;;28.90;90.70;;;;;;4920229;29;20098;-72
2022/07/03 08:15:38;;;;;;;5.10;1.88;;;29.30;91.90;;;;;;4938046;28;20466;-73
2022/07/03 08:18:05;;;;;;;2.63;1.40;;;29.70;91.20;;;;;;4921198;28;20787;-72
2022/07/03 08:20:31;;;;;;;2.50;1.48;;;29.80;90.10;;;;;;4916773;29;20561;-73
2022/07/03 08:22:57;;;;;;;1.92;1.23;;;29.70;89.40;;;;;;4913929;29;20044;-73
2022/07/03 08:25:23;;;;;;;2.95;2.25;;;29.90;88.80;;;;;;4927367;29;20106;-74
2022/07/03 08:27:49;;;;;;;3.63;1.20;;;30.10;87.70;;;;;;4924867;29;20092;-72
2022/07/03 08:30:17;;;;;;;1.50;1.00;;;30.20;86.20;;;;;;4927847;28;20128;-75
2022/07/03 08:32:45;;;;;;;2.63;1.15;;;30.30;85.00;;;;;;4913300;29;20059;-74
2022/07/03 08:35:11;;;;;;;3.33;1.20;;;30.30;81.70;;;;;;4917140;29;20207;-74
2022/07/03 08:37:40;;;;;;;1.00;0.90;;;30.50;83.10;;;;;;4916244;29;20130;-75
2022/07/03 08:40:07;;;;;;;2.83;0.95;;;30.40;81.00;;;;;;4928480;29;20048;-73
2022/07/03 08:42:34;;;;;;;2.30;1.40;;;30.10;80.00;;;;;;4917546;28;20048;-71
2022/07/03 08:45:01;;;;;;;1.08;1.05;;;29.30;80.00;;;;;;4926899;29;20407;-73
2022/07/03 08:47:29;;;;;;;2.35;0.93;;;28.90;80.00;;;;;;4924979;28;20465;-73
2022/07/03 08:49:56;;;;;;;1.00;0.90;;;28.70;80.30;;;;;;4918090;29;20154;-74
2022/07/03 08:52:23;;;;;;;1.23;0.90;;;28.70;80.00;;;;;;4923816;29;20079;-73
2022/07/03 08:54:50;;;;;;;1.95;1.17;;;28.80;79.10;;;;;;4917191;29;20545;-74
2022/07/03 08:57:17;;;;;;;1.40;1.00;;;28.70;79.30;;;;;;4930066;29;20822;-75
2022/07/03 08:59:50;;;;;;;2.58;1.55;;;28.10;79.20;;;;;;4913320;28;20052;-72
2022/07/03 09:02:17;;;;;;;2.45;0.85;;;27.30;79.60;;;;;;4914380;29;20048;-72
2022/07/03 09:04:44;;;;;;;3.35;0.90;;;27.20;80.60;;;;;;4902044;29;20048;-76
2022/07/03 09:07:12;;;;;;;1.05;0.80;;;26.80;80.90;;;;;;4925460;29;20125;-72
2022/07/03 09:09:39;;;;;;;4.18;0.85;;;26.60;81.40;;;;;;4910592;29;20055;-76
2022/07/03 09:12:05;;;;;;;1.60;0.93;;;26.50;80.80;;;;;;4912525;29;20142;-71
2022/07/03 09:14:32;;;;;;;1.48;0.90;;;26.70;81.10;;;;;;4913097;28;20052;-74
2022/07/03 09:16:58;;;;;;;2.67;0.98;;;26.70;82.30;;;;;;4914518;28;20044;-71
2022/07/03 09:19:46;;;;;;;1.08;0.98;;;26.90;81.80;;;;;;4928114;29;20047;-75
2022/07/03 09:22:26;;;;;;;1.02;0.70;;;27.20;79.50;;;;;;4911750;29;20055;-74
2022/07/03 09:24:54;;;;;;;2.63;0.60;;;27.60;77.60;;;;;;4917529;29;20066;-75
2022/07/03 09:27:22;;;;;;;1.35;1.00;;;28.00;78.90;;;;;;4914655;29;20058;-72
2022/07/03 09:30:08;;;;;;;1.67;0.85;;;28.40;79.10;;;;;;4913998;29;20067;-77
2022/07/03 09:32:36;;;;;;;1.00;0.90;;;28.90;74.90;;;;;;4903075;29;20052;-73
2022/07/03 09:35:11;;;;;;;1.20;0.90;;;29.10;76.80;;;;;;4904625;29;20048;-74
2022/07/03 09:37:37;;;;;;;1.75;0.75;;;29.40;75.50;;;;;;4917972;29;20130;-73
2022/07/03 09:40:03;;;;;;;2.33;1.00;;;29.90;77.60;;;;;;4915224;29;20054;-75
2022/07/03 09:42:29;;;;;;;0.88;0.60;;;30.20;78.30;;;;;;4911762;29;20063;-73
2022/07/03 09:44:55;;;;;;;1.50;1.20;;;29.90;76.30;;;;;;4914439;29;20118;-77
2022/07/03 09:47:25;;;;;;;1.85;0.80;;;30.00;76.20;;;;;;4932547;29;20074;-72
2022/07/03 09:50:07;;;;;;;0.93;0.60;;;30.60;74.60;;;;;;4918483;28;20059;-75
2022/07/03 09:52:36;;;;;;;;;;;30.60;69.80;;;;;;4927314;29;20734;-73
2022/07/03 09:55:10;;;;;;;1.10;0.60;;;30.40;69.30;;;;;;4925321;28;19927;-73
2022/07/03 09:57:49;;;;;;;2.03;0.60;;;30.60;71.10;;;;;;4925439;29;20771;-71
2022/07/03 10:00:22;;;;;;;1.55;0.75;;;30.50;68.10;;;;;;4929913;29;20081;-75
2022/07/03 10:03:09;;;;;;;1.02;0.52;;;30.50;69.90;;;;;;4932127;29;20154;-76
2022/07/03 10:05:40;;;;;;;0.60;0.60;;;30.60;68.40;;;;;;4924759;29;20066;-75
2022/07/03 10:08:17;;;;;;;0.50;0.47;;;30.60;69.90;;;;;;4932967;28;20160;-74
2022/07/03 10:10:46;;;;;;;0.73;0.50;;;30.90;69.30;;;;;;4937065;28;20106;-75
2022/07/03 10:13:12;;;;;;;0.70;0.45;;;30.90;68.80;;;;;;4915230;29;20146;-75
2022/07/03 10:15:39;;;;;;;2.58;0.65;;;31.10;69.30;;;;;;4920427;29;20566;-75
2022/07/03 10:18:14;;;;;;;1.95;0.60;;;31.10;68.40;;;;;;4921858;29;20701;-72
2022/07/03 10:20:42;;;;;;;2.17;0.90;;;31.30;66.70;;;;;;4928056;29;20047;-73
2022/07/03 10:23:09;;;;;;;4.13;1.17;;;31.30;66.50;;;;;;4918616;29;20051;-75
2022/07/03 10:25:35;;;;;;;2.22;0.80;;;31.20;68.30;;;;;;4912525;29;20105;-75
2022/07/03 10:28:01;;;;;;;1.00;0.57;;;31.20;68.40;;;;;;4920691;29;20555;-77
2022/07/03 10:30:27;;;;;;;1.63;0.70;;;31.10;68.50;;;;;;4925584;28;20163;-73
2022/07/03 10:32:55;;;;;;;1.20;0.73;;;30.80;67.10;;;;;;4916022;29;20055;-74
2022/07/03 10:35:33;;;;;;;3.35;1.25;;;30.40;68.10;;;;;;4921802;29;20770;-74
2022/07/03 10:38:01;;;;;;;0.50;0.50;;;30.00;66.90;;;;;;4914347;29;20047;-75
2022/07/03 10:46:31;;;;;;;1.52;0.68;;;30.60;68.10;;;;;;4921806;28;20055;-71
2022/07/03 10:48:58;;;;;;;0.93;0.65;;;30.50;69.10;;;;;;4917242;29;20054;-75
2022/07/03 10:51:26;;;;;;;0.70;0.70;;;30.40;68.60;;;;;;4928668;29;20079;-74
2022/07/03 10:54:20;;;;;;;1.08;0.63;;;30.20;67.20;;;;;;4921690;29;20685;-73
2022/07/03 10:56:58;;;;;;;3.22;1.08;;;30.10;65.70;;;;;;4921036;29;20062;-72
2022/07/03 10:59:42;;;;;;;2.88;0.88;;;29.50;66.10;;;;;;4926534;28;20864;-74
2022/07/03 11:02:26;;;;;;;0.98;0.82;;;29.40;69.50;;;;;;4925948;29;20051;-77
2022/07/03 11:04:58;;;;;;;1.27;0.73;;;29.60;68.00;;;;;;4931903;28;20107;-74
2022/07/03 11:07:54;;;;;;;0.80;0.77;;;29.70;69.20;;;;;;4928192;29;20410;-75
2022/07/03 11:10:19;;;;;;;1.30;0.80;;;29.40;67.50;;;;;;4916515;29;20059;-74
2022/07/03 11:13:11;;;;;;;1.40;0.80;;;29.20;68.50;;;;;;4925669;29;20062;-74
2022/07/03 11:15:41;;;;;;;1.63;0.90;;;29.30;67.40;;;;;;4914250;29;20539;-75
2022/07/03 11:18:13;;;;;;;2.40;0.75;;;29.30;68.50;;;;;;4927647;29;20055;-73
2022/07/03 11:20:41;;;;;;;0.65;0.60;;;29.30;67.40;;;;;;4922515;28;20051;-75
2022/07/03 11:23:16;;;;;;;2.53;0.95;;;29.30;68.50;;;;;;4918560;29;20078;-72
2022/07/03 11:25:43;;;;;;;1.05;0.65;;;29.20;67.40;;;;;;4914997;29;20059;-73
2022/07/03 11:28:31;;;;;;;1.15;0.70;;;29.00;67.60;;;;;;4928753;29;20079;-73
2022/07/03 11:31:17;;;;;;;0.80;0.80;;;29.20;68.60;;;;;;4920854;29;20087;-72
2022/07/03 11:33:44;;;;;;;3.20;0.80;;;29.10;68.20;;;;;;4931522;28;20055;-72
2022/07/03 11:36:16;;;;;;;1.15;0.82;;;29.00;67.90;;;;;;4925953;29;20043;-71
2022/07/03 11:38:42;;;;;;;;;;;29.10;68.10;;;;;;4925056;29;20119;-73
2022/07/03 11:41:11;;;;;;;1.00;1.00;;;29.30;67.50;;;;;;4921723;28;19923;-74
2022/07/03 11:43:37;;;;;;;1.05;0.77;;;29.40;66.60;;;;;;4919210;29;20052;-73
2022/07/03 11:46:04;;;;;;;2.30;0.90;;;29.50;67.20;;;;;;4919300;29;20052;-75
2022/07/03 11:48:30;;;;;;;2.58;0.88;;;29.40;67.10;;;;;;4924802;29;20723;-74
2022/07/03 11:51:01;;;;;;;2.40;1.52;;;29.10;66.90;;;;;;4929515;28;20047;-77
2022/07/03 11:53:29;;;;;;;0.75;0.75;;;28.80;65.90;;;;;;4926338;28;20801;-72
2022/07/03 11:56:07;;;;;;;0.82;0.68;;;28.50;68.20;;;;;;4918559;28;20044;-75
2022/07/03 11:58:48;;;;;;;0.85;0.85;;;28.30;69.00;;;;;;4920290;29;20059;-74
2022/07/03 12:01:26;;;;;;;3.83;1.35;;;28.00;70.90;;;;;;4920710;29;20058;-75
2022/07/03 12:04:06;;;;;;;2.83;1.13;;;28.20;69.10;;;;;;4924088;29;20055;-74
2022/07/03 12:06:40;;;;;;;2.97;1.10;;;28.30;72.20;;;;;;4923487;29;20415;-73
2022/07/03 12:09:15;;;;;;;1.90;1.13;;;28.30;71.60;;;;;;4914500;28;20048;-73
2022/07/03 12:11:42;;;;;;;1.20;1.10;;;28.20;70.40;;;;;;4920112;29;20058;-75
2022/07/03 12:14:07;;;;;;;1.45;1.20;;;28.20;71.30;;;;;;4919403;29;20078;-73
2022/07/03 12:16:34;;;;;;;1.52;1.20;;;28.20;70.90;;;;;;4923524;28;20048;-70
2022/07/03 12:19:05;;;;;;;2.28;1.40;;;28.00;72.10;;;;;;4927981;28;20048;-72
2022/07/03 12:21:39;;;;;;;6.97;1.15;;;27.60;73.10;;;;;;4919955;28;20055;-71
2022/07/03 12:24:14;;;;;;;2.83;1.20;;;27.10;73.10;;;;;;4914788;29;20143;-73
2022/07/03 12:26:40;;;;;;;5.25;1.58;;;27.20;75.20;;;;;;4912435;29;20114;-77
2022/07/03 12:29:14;;;;;;;3.30;1.20;;;27.50;74.20;;;;;;4917676;29;20122;-73
2022/07/03 12:31:41;;;;;;;1.52;1.30;;;27.40;73.60;;;;;;4909487;29;20412;-74
2022/07/03 12:34:07;;;;;;;1.60;1.10;;;27.10;73.20;;;;;;4909244;29;20051;-74
2022/07/03 12:36:33;;;;;;;1.45;0.90;;;27.30;73.30;;;;;;4918286;29;20047;-77
2022/07/03 12:39:02;;;;;;;1.10;1.05;;;27.60;72.90;;;;;;4914003;29;20087;-76
2022/07/03 12:41:28;;;;;;;1.13;0.88;;;27.70;71.90;;;;;;4913266;29;20062;-74
2022/07/03 12:43:54;;;;;;;1.40;0.90;;;28.10;73.00;;;;;;4917469;29;20123;-75
2022/07/03 12:46:23;;;;;;;2.75;0.90;;;27.90;71.30;;;;;;4917252;29;20047;-74
2022/07/03 12:48:54;;;;;;;2.42;1.20;;;27.70;71.90;;;;;;4914863;28;20056;-72
2022/07/03 12:51:43;;;;;;;2.00;1.35;;;27.60;72.20;;;;;;4915630;29;20055;-75
2022/07/03 12:54:33;;;;;;;1.00;0.90;;;27.40;71.90;;;;;;4914468;29;20134;-74
2022/07/03 13:00:11;;;;;;;1.83;1.30;;;27.20;72.90;;;;;;4914342;29;20166;-75
2022/07/03 13:02:38;;;;;;;2.13;1.00;;;27.00;73.20;;;;;;4929628;29;20067;-74
2022/07/03 13:05:18;;;;;;;1.35;1.00;;;26.90;74.60;;;;;;4914382;29;20044;-76
2022/07/03 13:07:46;;;;;;;2.35;1.30;;;26.80;74.90;;;;;;4923598;29;20090;-76
2022/07/03 13:10:14;;;;;;;2.00;1.45;;;26.80;73.60;;;;;;4915306;28;20127;-73
2022/07/03 13:12:59;;;;;;;1.42;1.33;;;26.70;74.60;;;;;;4926851;29;20102;-73
2022/07/03 13:15:29;;;;;;;3.30;1.00;;;26.50;75.90;;;;;;4917363;29;20047;-74
2022/07/03 13:17:54;;;;;;;2.97;1.20;;;26.60;75.40;;;;;;4916508;29;20083;-76